Time;durP1;ratioP1;P1;durP2;ratioP2;P2;SDS_P1;SDS_P2;PMS_P1;PMS_P2;Temp;Humidity;BMP_temperature;BMP_pressure;BME280_temperature;BME280_humidity;BME280_pressure;Samples;Min_cycle;Max_cycle;Signal;HPM_P1;HPM_P2
2022/02/25 00:04:32;;;;;;;0.00;0.00;;;;;;;6.08;59.42;99390.25;5659664;23;20283;-81
2022/02/25 00:07:30;;;;;;;0.35;0.35;;;;;;;6.06;59.01;99388.88;4941913;24;20471;-81
2022/02/25 00:09:55;;;;;;;0.30;0.30;;;;;;;6.07;59.44;99379.88;4824606;29;20061;-78
2022/02/25 00:12:21;;;;;;;0.00;0.00;;;;;;;6.06;59.28;99392.34;4855314;29;20041;-78
2022/02/25 00:14:46;;;;;;;0.00;0.00;;;;;;;6.05;59.12;99385.44;4844351;29;20490;-81
2022/02/25 00:19:59;;;;;;;0.00;0.00;;;;;;;6.03;59.10;99370.75;5150469;23;20097;-78
2022/02/25 00:22:25;;;;;;;0.00;0.00;;;;;;;6.04;59.13;99373.19;4858699;29;20053;-80
2022/02/25 00:24:50;;;;;;;0.00;0.00;;;;;;;6.04;59.03;99372.38;4843748;29;20405;-78
2022/02/25 00:27:16;;;;;;;0.00;0.00;;;;;;;6.05;59.08;99368.69;4844247;29;20033;-79
2022/02/25 00:29:57;;;;;;;0.00;0.00;;;;;;;6.07;58.95;99362.09;4849125;29;20037;-81
2022/02/25 00:36:40;;;;;;;0.00;0.00;;;;;;;6.03;59.61;99366.28;4882099;29;20085;-81
2022/02/25 00:40:02;;;;;;;0.00;0.00;;;;;;;5.95;59.89;99369.28;4859331;29;20121;-82
2022/02/25 00:42:51;;;;;;;0.20;0.20;;;;;;;5.95;59.92;99371.94;4805046;29;20057;-82
2022/02/25 00:45:33;;;;;;;0.00;0.00;;;;;;;5.90;59.61;99367.31;4861382;29;20033;-81
2022/02/25 00:47:59;;;;;;;1.60;1.00;;;;;;;5.89;59.43;99363.06;4843412;29;20034;-80
2022/02/25 00:50:26;;;;;;;0.00;0.00;;;;;;;5.86;59.91;99360.88;4842964;29;20033;-79
2022/02/25 00:52:51;;;;;;;0.00;0.00;;;;;;;5.82;60.12;99354.44;4843362;29;20120;-80
2022/02/25 00:55:19;;;;;;;0.00;0.00;;;;;;;5.79;59.80;99352.25;4843357;29;20076;-82
2022/02/25 00:58:25;;;;;;;0.00;0.00;;;;;;;5.75;60.02;99351.13;4861455;29;20030;-82
2022/02/25 01:01:31;;;;;;;0.00;0.00;;;;;;;5.72;59.99;99348.94;4880024;29;20073;-84
2022/02/25 01:49:51;;;;;;;0.63;0.63;;;;;;;5.63;59.85;99324.63;4930081;23;20053;-79
2022/02/25 02:48:35;;;;;;;0.00;0.00;;;;;;;5.02;59.20;99303.00;5134413;23;20157;-80
2022/02/25 02:51:02;;;;;;;0.00;0.00;;;;;;;4.97;59.48;99307.13;4858572;23;1724732;-80
2022/02/25 02:56:04;;;;;;;0.00;0.00;;;;;;;5.01;59.67;99302.16;4937151;23;20481;-82
2022/02/25 02:58:29;;;;;;;0.00;0.00;;;;;;;5.07;59.28;99308.41;4863920;29;20495;-80
2022/02/25 03:00:55;;;;;;;0.00;0.00;;;;;;;5.03;59.50;99302.75;4865765;29;20056;-80
2022/02/25 03:03:24;;;;;;;0.00;0.00;;;;;;;4.98;58.89;99302.66;4862057;29;20116;-81
2022/02/25 03:05:49;;;;;;;;;;;;;;;4.95;59.51;99305.75;4852751;29;20124;-80
2022/02/25 03:08:15;;;;;;;0.00;0.00;;;;;;;4.94;59.32;99299.66;4866405;29;19954;-82
2022/02/25 03:10:46;;;;;;;0.30;0.30;;;;;;;4.89;59.32;99293.44;4878994;29;20079;-80
2022/02/25 03:16:23;;;;;;;;;;;;;;;4.84;59.65;99298.63;5112152;23;20279;-79
2022/02/25 03:19:23;;;;;;;;;;;;;;;4.79;59.96;99310.72;4886342;29;20009;-80
2022/02/25 03:22:09;;;;;;;0.00;0.00;;;;;;;4.76;60.18;99294.47;4867980;29;19944;-80
2022/02/25 03:24:36;;;;;;;0.00;0.00;;;;;;;4.67;59.93;99301.97;4848892;29;20120;-80
2022/02/25 03:27:02;;;;;;;0.00;0.00;;;;;;;4.62;60.07;99304.50;4860413;29;20036;-79
2022/02/25 03:30:14;;;;;;;0.00;0.00;;;;;;;4.57;60.53;99310.47;4866592;29;20040;-80
2022/02/25 03:33:01;;;;;;;0.03;0.03;;;;;;;4.52;60.77;99305.06;4869666;29;20033;-82
2022/02/25 03:40:37;;;;;;;0.00;0.00;;;;;;;4.35;61.39;99298.84;5730592;23;20023;-78
2022/02/25 03:43:03;;;;;;;0.00;0.00;;;;;;;4.33;61.36;99302.53;4892579;29;20056;-81
2022/02/25 03:45:28;;;;;;;0.00;0.00;;;;;;;4.31;61.67;99295.84;4863733;29;20512;-81
2022/02/25 03:47:58;;;;;;;0.00;0.00;;;;;;;4.29;61.26;99296.06;4852198;29;20038;-81
2022/02/25 03:50:23;;;;;;;0.00;0.00;;;;;;;4.24;61.57;99293.28;4863953;29;20092;-79
2022/02/25 03:52:49;;;;;;;0.30;0.30;;;;;;;4.26;61.41;99296.53;4859276;29;20470;-80
2022/02/25 04:05:48;;;;;;;0.52;0.52;;;;;;;4.27;60.35;99294.69;5159444;23;20065;-82
2022/02/25 04:11:46;;;;;;;0.00;0.00;;;;;;;3.99;60.15;99248.47;4858588;29;20071;-80
2022/02/25 04:14:14;;;;;;;0.00;0.00;;;;;;;4.29;59.96;99304.00;4804188;29;20082;-79
2022/02/25 04:16:40;;;;;;;0.00;0.00;;;;;;;4.28;59.58;99294.44;4809318;29;20038;-81
2022/02/25 04:19:06;;;;;;;0.00;0.00;;;;;;;4.31;60.12;99291.34;4825285;29;20034;-79
2022/02/25 04:47:41;;;;;;;0.00;0.00;;;;;;;4.22;58.80;99291.91;4841983;29;20177;-81
2022/02/25 04:50:12;;;;;;;0.00;0.00;;;;;;;4.18;59.07;99288.91;4843366;29;20034;-81
2022/02/25 04:55:59;;;;;;;0.00;0.00;;;;;;;4.07;58.68;99285.22;4949007;23;20063;-80
2022/02/25 05:01:47;;;;;;;0.00;0.00;;;;;;;4.09;58.88;99293.75;4881814;29;20048;-81
2022/02/25 05:04:52;;;;;;;0.00;0.00;;;;;;;4.09;58.96;99290.25;4880220;29;20033;-83
2022/02/25 05:07:17;;;;;;;0.28;0.28;;;;;;;4.06;58.61;99288.09;4877007;29;20048;-81
2022/02/25 05:20:43;;;;;;;0.00;0.00;;;;;;;4.26;58.38;99283.28;5616182;23;20076;-81
2022/02/25 05:30:00;;;;;;;0.00;0.00;;;;;;;4.87;56.66;99287.56;5052651;23;21554;31
2022/02/25 08:17:39;;;;;;;0.00;0.00;;;;;;;10.28;43.05;99330.00;5105845;23;20052;-96
2022/02/25 08:21:26;;;;;;;0.00;0.00;;;;;;;10.46;42.32;99343.94;4898953;29;20021;-94
2022/02/25 08:24:56;;;;;;;0.00;0.00;;;;;;;10.46;41.36;99334.06;4874486;29;20157;-94
2022/02/25 08:28:09;;;;;;;0.00;0.00;;;;;;;10.42;40.62;99330.28;4868783;29;20096;-96
2022/02/25 08:31:44;;;;;;;0.00;0.00;;;;;;;10.47;41.27;99335.63;4875109;29;20037;-94
2022/02/25 08:35:12;;;;;;;0.40;0.40;;;;;;;10.47;42.04;99326.81;4818811;29;20053;-94
2022/02/25 08:42:37;;;;;;;0.00;0.00;;;;;;;10.77;41.65;99325.19;4745545;30;20114;-94
2022/02/25 08:45:46;;;;;;;0.47;0.47;;;;;;;10.82;41.71;99317.94;4737383;30;20056;-95
2022/02/25 08:52:22;;;;;;;0.00;0.00;;;;;;;10.93;41.17;99321.41;4617244;31;20534;-95
2022/02/25 08:55:46;;;;;;;0.00;0.00;;;;;;;10.96;41.98;99328.09;4606860;31;20063;-94
2022/02/25 08:59:16;;;;;;;0.00;0.00;;;;;;;10.97;42.12;99316.31;4586943;31;20678;-95
2022/02/25 09:02:52;;;;;;;0.00;0.00;;;;;;;10.95;41.60;99316.59;4566025;31;20097;-95
2022/02/25 09:06:23;;;;;;;0.10;0.10;;;;;;;10.89;41.55;99315.00;4616347;31;20048;-94
2022/02/25 09:36:07;;;;;;;0.00;0.00;;;;;;;11.08;40.02;99290.34;4683539;30;20558;-94
2022/02/25 09:43:09;;;;;;;0.45;0.45;;;;;;;11.09;38.36;99279.34;4701258;30;20052;-95
2022/02/25 09:50:26;;;;;;;0.00;0.00;;;;;;;11.01;39.00;99272.69;4671060;30;20050;-94
2022/02/25 09:57:39;;;;;;;0.00;0.00;;;;;;;10.51;39.51;99240.44;4693861;30;20165;-92
2022/02/25 10:01:18;;;;;;;0.00;0.00;;;;;;;10.56;41.00;99258.38;4678998;30;20098;-92
2022/02/25 10:08:16;;;;;;;0.00;0.00;;;;;;;10.52;38.66;99250.09;4665284;30;20037;-91
2022/02/25 10:11:51;;;;;;;0.13;0.13;;;;;;;10.48;38.61;99253.56;4668691;30;20052;-92
2022/02/25 10:15:19;;;;;;;0.50;0.50;;;;;;;10.45;38.47;99240.72;4673918;30;20062;-90
2022/02/25 10:26:29;;;;;;;0.00;0.00;;;;;;;10.53;37.06;99226.81;4644421;30;20066;-92
2022/02/25 10:33:38;;;;;;;0.00;0.00;;;;;;;10.45;37.31;99222.00;4605393;30;20109;-91
2022/02/25 12:34:51;;;;;;;0.00;0.00;;;;;;;12.74;27.20;99052.03;4824819;29;20454;-93
2022/02/25 12:47:25;;;;;;;0.00;0.00;;;;;;;12.61;27.45;99040.94;4824265;29;20087;-91
2022/02/25 12:49:51;;;;;;;0.00;0.00;;;;;;;12.51;26.72;99045.63;4806903;29;20030;-91
2022/02/25 13:16:47;;;;;;;0.00;0.00;;;;;;;12.03;26.60;99025.03;4696587;30;20064;-92
2022/02/25 13:19:25;;;;;;;0.57;0.57;;;;;;;11.91;25.46;99015.47;4697181;30;20052;-94
2022/02/25 13:38:21;;;;;;;0.00;0.00;;;;;;;11.93;23.95;99002.59;4730996;30;20113;-94
2022/02/25 13:41:29;;;;;;;0.00;0.00;;;;;;;11.91;24.14;98994.03;4728019;30;20216;-93
2022/02/25 13:44:15;;;;;;;0.00;0.00;;;;;;;11.92;23.78;99001.00;4794340;29;20416;-92
2022/02/25 13:53:01;;;;;;;1.08;0.65;;;;;;;12.09;21.16;98999.78;4804720;29;20053;-92
2022/02/25 13:55:32;;;;;;;0.00;0.00;;;;;;;12.11;22.60;98985.00;4787903;29;20035;-92
2022/02/25 13:57:59;;;;;;;0.10;0.10;;;;;;;12.21;22.96;98992.09;4788759;29;20063;-92
2022/02/25 14:00:50;;;;;;;0.00;0.00;;;;;;;12.24;23.01;98986.19;4787905;29;20034;-92
2022/02/25 14:03:16;;;;;;;0.00;0.00;;;;;;;12.30;24.85;98985.03;4788198;29;20175;-92
2022/02/25 14:05:42;;;;;;;0.00;0.00;;;;;;;12.38;25.00;98986.25;4803192;29;20031;-92
2022/02/25 14:08:19;;;;;;;0.05;0.05;;;;;;;12.43;23.45;98988.88;4772974;29;20559;-92
2022/02/25 14:10:45;;;;;;;0.00;0.00;;;;;;;12.39;23.36;98984.34;4787873;29;20103;-92
2022/02/25 14:13:50;;;;;;;0.00;0.00;;;;;;;12.37;24.19;98981.19;4788103;29;20039;-93
2022/02/25 14:20:37;;;;;;;0.00;0.00;;;;;;;12.45;24.75;98985.88;4821918;29;20045;-93
2022/02/25 14:23:18;;;;;;;0.08;0.08;;;;;;;12.43;25.29;98988.88;4822199;29;20050;-92
2022/02/25 14:26:18;;;;;;;0.00;0.00;;;;;;;12.42;25.96;98986.47;4790997;29;20422;-93
2022/02/25 14:28:45;;;;;;;0.10;0.10;;;;;;;12.41;25.83;98988.34;4808677;29;20133;-93
2022/02/25 14:31:54;;;;;;;0.00;0.00;;;;;;;12.37;26.00;98989.22;4809806;29;20484;-92
2022/02/25 14:35:13;;;;;;;0.00;0.00;;;;;;;12.35;25.67;98991.41;4809107;29;20042;-93
2022/02/25 14:48:04;;;;;;;0.00;0.00;;;;;;;12.34;23.73;98995.97;4825482;29;20044;-89
2022/02/25 14:50:30;;;;;;;0.85;0.63;;;;;;;12.33;24.40;98999.75;4790590;29;20095;-87
2022/02/25 14:52:57;;;;;;;0.00;0.00;;;;;;;12.39;24.75;99003.13;4815424;29;20038;-84
2022/02/25 14:55:23;;;;;;;0.00;0.00;;;;;;;12.31;23.23;98997.31;4778670;29;20166;-87
2022/02/25 14:57:50;;;;;;;0.00;0.00;;;;;;;12.40;24.23;99005.53;4804442;29;20488;-87
2022/02/25 15:00:17;;;;;;;0.03;0.03;;;;;;;12.38;23.20;99007.72;4808169;29;20034;-87
2022/02/25 15:02:44;;;;;;;0.00;0.00;;;;;;;12.39;23.47;99006.63;4808415;29;20034;-87
2022/02/25 15:05:11;;;;;;;0.00;0.00;;;;;;;12.39;23.83;99008.50;4823447;29;20117;-87
2022/02/25 15:07:39;;;;;;;0.00;0.00;;;;;;;12.36;24.66;99009.09;4817226;29;20042;-88
2022/02/25 15:10:07;;;;;;;0.00;0.00;;;;;;;12.44;24.82;99005.75;4826346;29;20066;-88
2022/02/25 15:12:33;;;;;;;0.00;0.00;;;;;;;12.44;23.79;99011.13;4826660;29;20049;-86
2022/02/25 15:15:06;;;;;;;0.00;0.00;;;;;;;12.41;23.86;99001.75;4821109;29;20042;-87
2022/02/25 15:17:32;;;;;;;0.00;0.00;;;;;;;12.41;23.78;99006.34;4808332;29;20038;-85
2022/02/25 15:19:58;;;;;;;0.00;0.00;;;;;;;12.42;24.32;99000.66;4808011;29;20081;-86
2022/02/25 15:22:23;;;;;;;0.00;0.00;;;;;;;12.41;23.73;99006.34;4823193;29;20034;-84
2022/02/25 15:24:49;;;;;;;0.13;0.13;;;;;;;12.41;24.49;99011.69;4808071;29;20034;-88
2022/02/25 15:27:15;;;;;;;0.00;0.00;;;;;;;12.41;24.98;99007.13;4820889;29;20121;-90
2022/02/25 15:29:41;;;;;;;0.00;0.00;;;;;;;12.42;24.77;99000.66;4802834;29;20126;-82
2022/02/25 15:32:07;;;;;;;0.00;0.00;;;;;;;12.39;24.48;99005.81;4800165;29;20062;-85
2022/02/25 15:34:34;;;;;;;0.00;0.00;;;;;;;12.36;23.88;99006.41;4822139;29;20038;-89
2022/02/25 15:37:00;;;;;;;0.40;0.40;;;;;;;12.33;24.35;99010.47;4813619;29;20094;-92
2022/02/25 15:39:26;;;;;;;0.20;0.20;;;;;;;12.33;24.60;99013.16;4808784;29;20069;-85
2022/02/25 15:41:52;;;;;;;0.00;0.00;;;;;;;12.38;24.90;99012.25;4803871;29;20042;-87
2022/02/25 15:44:21;;;;;;;0.00;0.00;;;;;;;12.37;24.77;99014.16;4804758;29;20091;-85
2022/02/25 15:46:46;;;;;;;;;;;;;;;12.35;24.44;99010.94;4807821;29;20046;-83
2022/02/25 15:49:11;;;;;;;0.00;0.00;;;;;;;12.35;24.08;99010.94;4820134;29;20316;-85
2022/02/25 15:51:37;;;;;;;0.00;0.00;;;;;;;12.33;24.28;99002.41;4825798;29;20033;-84
2022/02/25 15:54:02;;;;;;;0.00;0.00;;;;;;;12.28;23.95;99002.47;4816866;29;20046;-83
2022/02/25 15:56:28;;;;;;;0.00;0.00;;;;;;;12.28;23.95;99015.88;4807657;29;20115;-87
2022/02/25 15:58:53;;;;;;;0.00;0.00;;;;;;;12.29;24.58;99020.16;4807213;29;20045;-85
2022/02/25 16:01:19;;;;;;;0.00;0.00;;;;;;;12.30;24.21;99011.03;4806854;29;20030;-87
2022/02/25 16:03:44;;;;;;;0.00;0.00;;;;;;;12.29;24.52;99006.75;4807583;29;20030;-94
2022/02/25 16:06:10;;;;;;;0.00;0.00;;;;;;;12.24;24.56;99013.00;4807449;29;20038;-82
2022/02/25 16:08:35;;;;;;;0.00;0.00;;;;;;;12.19;24.61;99013.03;4805139;29;20071;-79
2022/02/25 16:11:01;;;;;;;0.00;0.00;;;;;;;12.19;24.77;99013.03;4823432;29;20026;-79
2022/02/25 16:13:27;;;;;;;0.00;0.00;;;;;;;12.15;24.80;99022.75;4804021;29;20039;-82
2022/02/25 16:15:53;;;;;;;0.00;0.00;;;;;;;12.10;25.40;99031.66;4801952;29;20045;-88
2022/02/25 16:18:19;;;;;;;0.00;0.00;;;;;;;12.06;26.80;99029.81;4805220;29;20503;-89
2022/02/25 16:20:46;;;;;;;0.00;0.00;;;;;;;12.01;26.76;99033.34;4823109;29;20030;-89
2022/02/25 16:23:12;;;;;;;0.00;0.00;;;;;;;11.98;27.48;99028.56;4790261;29;20130;-89
2022/02/25 16:25:40;;;;;;;0.03;0.03;;;;;;;11.96;27.76;99030.69;4802208;29;20113;-88
2022/02/25 16:28:06;;;;;;;0.00;0.00;;;;;;;11.96;28.38;99044.94;4821379;29;20628;-88
2022/02/25 16:30:32;;;;;;;0.00;0.00;;;;;;;11.91;28.36;99049.53;4806812;29;20486;-86
2022/02/25 16:32:57;;;;;;;0.32;0.30;;;;;;;11.87;28.33;99059.22;4806342;29;20041;-88
2022/02/25 16:35:23;;;;;;;0.08;0.08;;;;;;;11.81;28.66;99069.19;4792064;29;20480;-87
2022/02/25 16:37:48;;;;;;;0.00;0.00;;;;;;;11.77;28.81;99065.47;4806502;29;20423;-87
2022/02/25 16:40:14;;;;;;;0.00;0.00;;;;;;;11.74;29.31;99066.03;4812964;29;20414;-86
2022/02/25 16:42:40;;;;;;;0.00;0.00;;;;;;;11.73;29.02;99069.78;4788668;29;20543;-87
2022/02/25 16:45:06;;;;;;;0.00;0.00;;;;;;;11.67;28.99;99069.84;4797872;29;20471;-93
2022/02/25 16:47:32;;;;;;;0.00;0.00;;;;;;;11.66;29.34;99076.28;4792806;29;20465;-93
2022/02/25 16:49:58;;;;;;;0.00;0.00;;;;;;;11.65;30.06;99076.56;4807063;29;20102;-90
2022/02/25 16:52:24;;;;;;;0.00;0.00;;;;;;;11.58;30.38;99073.41;4795139;29;20502;-87
2022/02/25 16:54:49;;;;;;;0.00;0.00;;;;;;;11.53;30.43;99074.25;4804807;29;20038;-88
2022/02/25 16:57:15;;;;;;;0.00;0.00;;;;;;;11.49;30.73;99076.69;4806362;29;20414;-87
2022/02/25 16:59:42;;;;;;;0.40;0.40;;;;;;;11.50;30.74;99083.66;4806530;29;20084;-92
2022/02/25 17:02:13;;;;;;;0.40;0.40;;;;;;;11.44;31.10;99074.06;4806389;29;20045;-94
2022/02/25 17:04:39;;;;;;;0.10;0.10;;;;;;;11.44;30.85;99084.78;4808937;29;20056;-86
2022/02/25 17:07:05;;;;;;;0.00;0.00;;;;;;;11.46;30.44;99079.13;4805919;29;20384;-83
2022/02/25 17:09:31;;;;;;;0.10;0.10;;;;;;;11.40;30.96;99083.75;4806455;29;20687;-85
2022/02/25 17:11:56;;;;;;;0.00;0.00;;;;;;;11.34;30.89;99079.53;4804546;29;20113;-81
2022/02/25 17:14:22;;;;;;;0.00;0.00;;;;;;;11.31;31.29;99083.53;4805771;29;20175;-81
2022/02/25 17:16:48;;;;;;;0.00;0.00;;;;;;;11.30;31.38;99086.50;4806447;29;20094;-85
2022/02/25 17:19:13;;;;;;;0.00;0.00;;;;;;;11.29;31.36;99083.03;4802431;29;20059;-82
2022/02/25 17:21:39;;;;;;;0.00;0.00;;;;;;;11.26;31.52;99093.50;4800582;29;20039;-81
2022/02/25 17:24:05;;;;;;;0.00;0.00;;;;;;;11.21;32.04;99091.66;4805367;29;20089;-85
2022/02/25 17:26:31;;;;;;;0.00;0.00;;;;;;;11.14;31.96;99094.63;4803233;29;20162;-89
2022/02/25 17:28:57;;;;;;;0.00;0.00;;;;;;;11.04;31.47;99098.16;4797332;29;20046;-87
2022/02/25 17:31:22;;;;;;;0.00;0.00;;;;;;;11.00;31.59;99094.47;4822690;29;20097;-85
2022/02/25 17:33:48;;;;;;;0.00;0.00;;;;;;;10.92;32.39;99092.38;4824370;29;20129;-84
2022/02/25 17:36:16;;;;;;;0.00;0.00;;;;;;;10.89;32.60;99092.94;4810491;29;20038;-96
2022/02/25 17:38:42;;;;;;;0.00;0.00;;;;;;;10.85;32.75;99097.22;4799649;29;20050;-84
2022/02/25 17:41:08;;;;;;;0.00;0.00;;;;;;;10.84;32.91;99095.63;4801426;29;20472;-81
2022/02/25 17:43:33;;;;;;;0.00;0.00;;;;;;;10.76;32.92;99102.34;4805202;29;20114;-85
2022/02/25 17:45:59;;;;;;;0.08;0.08;;;;;;;10.76;33.39;99105.03;4787536;29;20568;-83
2022/02/25 17:48:25;;;;;;;0.00;0.00;;;;;;;10.68;34.45;99109.09;4789133;29;20037;-85
2022/02/25 17:50:51;;;;;;;0.10;0.10;;;;;;;10.63;34.78;99113.66;4800794;29;20083;-77
2022/02/25 17:53:16;;;;;;;0.00;0.00;;;;;;;10.56;35.38;99121.97;4820728;29;20038;-83
2022/02/25 17:55:42;;;;;;;0.00;0.00;;;;;;;10.45;36.49;99107.84;4802870;29;20045;-80
2022/02/25 17:58:08;;;;;;;0.00;0.00;;;;;;;10.38;36.53;99118.03;4805643;29;20041;-80
2022/02/25 18:00:33;;;;;;;0.00;0.00;;;;;;;10.34;36.71;99124.94;4805032;29;20037;-80
2022/02/25 18:03:01;;;;;;;0.00;0.00;;;;;;;10.27;36.88;99127.13;4805022;29;20035;-79
2022/02/25 18:05:27;;;;;;;0.40;0.40;;;;;;;10.09;37.50;99126.63;4806151;29;20061;-79
2022/02/25 18:07:52;;;;;;;0.10;0.10;;;;;;;10.02;37.47;99129.59;4823990;29;20061;-79
2022/02/25 18:10:18;;;;;;;0.00;0.00;;;;;;;9.89;38.16;99125.59;4808084;29;20030;-79
2022/02/25 18:12:43;;;;;;;0.00;0.00;;;;;;;9.82;38.22;99134.94;4808018;29;20475;-80
2022/02/25 18:15:09;;;;;;;0.20;0.20;;;;;;;9.75;38.86;99128.03;4824151;29;20586;-79
2022/02/25 18:17:35;;;;;;;0.43;0.43;;;;;;;9.66;39.13;99142.97;4805340;29;20045;-78
2022/02/25 18:20:02;;;;;;;0.52;0.30;;;;;;;9.58;39.02;99143.50;4796164;29;20125;-79
2022/02/25 18:22:28;;;;;;;0.10;0.10;;;;;;;9.48;39.54;99148.84;4807926;29;20499;-78
2022/02/25 18:24:53;;;;;;;0.00;0.00;;;;;;;9.40;39.97;99150.19;4824012;29;20063;-78
2022/02/25 18:27:19;;;;;;;0.00;0.00;;;;;;;9.32;40.14;99153.38;4805921;29;20034;-87
2022/02/25 18:29:45;;;;;;;0.00;0.00;;;;;;;9.22;40.15;99143.47;4818792;29;20037;-84
2022/02/25 18:32:12;;;;;;;0.20;0.20;;;;;;;9.17;40.38;99157.59;4816077;29;20632;-83
2022/02/25 18:34:38;;;;;;;0.00;0.00;;;;;;;9.07;40.61;99152.22;4806587;29;20094;-82
2022/02/25 18:37:05;;;;;;;0.00;0.00;;;;;;;9.00;40.83;99147.16;4805991;29;20027;-79
2022/02/25 18:42:53;;;;;;;0.00;0.00;;;;;;;8.74;41.29;99163.06;4824950;29;20091;-82
2022/02/25 18:46:11;;;;;;;0.00;0.00;;;;;;;8.69;41.34;99165.72;4807644;29;20030;-85
2022/02/25 18:52:29;;;;;;;0.00;0.00;;;;;;;8.46;41.27;99156.25;4814663;29;20057;-91
2022/02/25 18:55:40;;;;;;;0.00;0.00;;;;;;;8.39;41.75;99158.34;4823699;29;20053;-85
2022/02/25 18:58:25;;;;;;;0.00;0.00;;;;;;;8.23;41.95;99152.94;4817510;29;20196;-82
2022/02/25 19:01:46;;;;;;;0.00;0.00;;;;;;;8.22;42.28;99161.97;4799259;29;20069;-87
2022/02/25 19:08:40;;;;;;;0.00;0.00;;;;;;;8.01;42.40;99171.69;4715566;30;20099;-85
2022/02/25 19:11:58;;;;;;;0.00;0.00;;;;;;;7.98;42.19;99170.34;4714910;30;20798;-86
2022/02/25 19:15:45;;;;;;;0.00;0.00;;;;;;;7.89;42.96;99174.53;4690145;30;20046;-83
2022/02/25 19:25:30;;;;;;;0.00;0.00;;;;;;;7.64;44.20;99167.97;4944524;23;20064;-86
2022/02/25 19:27:56;;;;;;;0.00;0.00;;;;;;;7.58;44.38;99161.00;4862023;29;20044;-83
2022/02/25 19:30:50;;;;;;;0.00;0.00;;;;;;;7.52;44.44;99169.97;4859223;29;20069;-86
2022/02/25 19:33:15;;;;;;;0.00;0.00;;;;;;;7.42;44.53;99169.88;4858141;29;20525;-79
2022/02/25 19:38:45;;;;;;;0.00;0.00;;;;;;;7.35;45.66;99170.88;4926545;23;20058;-82
2022/02/25 19:41:11;;;;;;;0.00;0.00;;;;;;;7.29;45.65;99185.19;4848023;29;20089;-81
2022/02/25 19:43:37;;;;;;;0.00;0.00;;;;;;;7.24;45.44;99185.16;4852093;29;20029;-80
2022/02/25 19:46:03;;;;;;;0.00;0.00;;;;;;;7.22;45.40;99188.03;4853973;29;20041;-81
2022/02/25 19:48:29;;;;;;;0.00;0.00;;;;;;;7.21;45.78;99189.09;4859637;29;20036;-83
2022/02/25 19:50:55;;;;;;;0.00;0.00;;;;;;;7.17;45.74;99193.31;4862860;29;20037;-80
2022/02/25 19:56:04;;;;;;;0.10;0.10;;;;;;;7.12;45.91;99189.81;5086078;23;20049;-79
2022/02/25 19:58:32;;;;;;;0.00;0.00;;;;;;;7.09;46.44;99195.59;4852250;29;20020;-82
2022/02/25 20:14:11;;;;;;;0.08;0.08;;;;;;;6.66;47.23;99200.69;4924815;23;20271;-78
2022/02/25 20:16:39;;;;;;;0.10;0.10;;;;;;;6.63;46.98;99198.50;4851410;29;20045;-78
2022/02/25 20:19:05;;;;;;;0.00;0.00;;;;;;;6.57;47.41;99203.75;4844587;29;20033;-77
2022/02/25 20:21:30;;;;;;;0.00;0.00;;;;;;;6.51;47.43;99194.09;4869656;29;20051;-77
2022/02/25 20:23:56;;;;;;;0.00;0.00;;;;;;;6.51;47.34;99202.09;4863073;29;20037;-77
2022/02/25 20:26:21;;;;;;;0.03;0.03;;;;;;;6.53;47.16;99199.16;4852369;29;20037;-79
2022/02/25 20:28:47;;;;;;;0.00;0.00;;;;;;;6.51;47.52;99193.31;4862026;29;20060;-79
2022/02/25 20:31:12;;;;;;;0.00;0.00;;;;;;;6.50;47.44;99199.69;4859021;29;20026;-78
2022/02/25 20:33:38;;;;;;;0.00;0.00;;;;;;;6.42;47.56;99192.94;4847224;29;20029;-77
2022/02/25 20:36:03;;;;;;;0.00;0.00;;;;;;;6.38;47.89;99194.47;4859367;29;20390;-79
2022/02/25 20:38:30;;;;;;;0.00;0.00;;;;;;;6.34;47.56;99196.00;4855051;29;20851;-81
2022/02/25 20:40:56;;;;;;;0.00;0.00;;;;;;;6.30;47.61;99186.91;4877216;29;20025;-77
2022/02/25 20:43:21;;;;;;;0.00;0.00;;;;;;;6.25;48.23;99187.66;4876811;29;20200;-81
2022/02/25 20:45:47;;;;;;;0.00;0.00;;;;;;;6.23;48.75;99184.44;4852965;29;20533;-80
2022/02/25 20:48:13;;;;;;;0.00;0.00;;;;;;;6.20;47.93;99184.91;4842432;29;20041;-81
2022/02/25 20:50:38;;;;;;;0.00;0.00;;;;;;;6.18;47.90;99176.41;4842781;29;20034;-80
2022/02/25 20:53:05;;;;;;;0.00;0.00;;;;;;;6.17;48.23;99178.22;4850677;29;20021;-83
2022/02/25 20:55:32;;;;;;;0.00;0.00;;;;;;;6.09;48.20;99182.13;4876243;29;20240;-80
2022/02/25 20:57:57;;;;;;;0.00;0.00;;;;;;;6.07;47.77;99176.22;4867150;29;20049;-80
2022/02/25 21:00:24;;;;;;;0.00;0.00;;;;;;;6.09;47.45;99181.28;4874838;29;20481;-81
2022/02/25 21:02:50;;;;;;;0.00;0.00;;;;;;;6.07;47.74;99188.72;4844866;29;20044;-81
2022/02/25 21:05:15;;;;;;;0.00;0.00;;;;;;;6.05;47.79;99182.84;4847618;29;20026;-81
2022/02/25 21:07:41;;;;;;;1.25;1.08;;;;;;;6.05;48.25;99188.97;4848631;29;20051;-79
2022/02/25 21:10:06;;;;;;;0.00;0.00;;;;;;;6.06;47.67;99181.78;4857090;29;20669;-78
2022/02/25 21:12:32;;;;;;;0.00;0.00;;;;;;;6.03;47.79;99182.25;4868652;29;20115;-78
2022/02/25 21:14:57;;;;;;;0.00;0.00;;;;;;;6.04;47.88;99189.19;4838848;29;20532;-79
2022/02/25 21:17:23;;;;;;;0.00;0.00;;;;;;;6.01;47.78;99190.47;4842527;29;20037;-77
2022/02/25 21:19:48;;;;;;;0.00;0.00;;;;;;;6.12;47.44;99198.63;4841814;29;20087;-78
2022/02/25 21:22:14;;;;;;;0.00;0.00;;;;;;;6.12;47.33;99198.63;4842888;29;20029;-80
2022/02/25 21:24:39;;;;;;;0.00;0.00;;;;;;;6.14;47.24;99197.31;4840852;29;20175;-78
2022/02/25 21:27:05;;;;;;;0.03;0.03;;;;;;;6.14;47.26;99194.66;4848393;29;20055;-78
2022/02/25 21:29:30;;;;;;;0.00;0.00;;;;;;;6.11;47.48;99197.00;4857963;29;20025;-80
2022/02/25 21:32:10;;;;;;;0.00;0.00;;;;;;;6.10;47.52;99204.16;4852111;29;20021;-83
2022/02/25 21:34:35;;;;;;;0.00;0.00;;;;;;;6.07;47.39;99191.38;4857367;29;20041;-82
2022/02/25 21:37:02;;;;;;;0.00;0.00;;;;;;;6.03;47.55;99191.06;4854011;29;20036;-79
2022/02/25 21:39:28;;;;;;;0.00;0.00;;;;;;;6.03;47.51;99192.88;4858197;29;20555;-78
2022/02/25 21:41:53;;;;;;;0.00;0.00;;;;;;;5.97;47.55;99188.50;4866875;29;20025;-76
2022/02/25 21:44:19;;;;;;;0.00;0.00;;;;;;;5.97;47.63;99185.84;4863063;29;20090;-79
2022/02/25 21:46:44;;;;;;;0.00;0.00;;;;;;;5.95;47.72;99178.13;4867680;29;20033;-80
2022/02/25 21:49:10;;;;;;;0.00;0.00;;;;;;;5.84;48.14;99177.16;4827245;29;20045;-79
2022/02/25 21:51:36;;;;;;;0.00;0.00;;;;;;;5.83;48.35;99182.72;4851690;29;20032;-79
2022/02/25 21:54:01;;;;;;;0.00;0.00;;;;;;;5.89;48.31;99192.38;4827914;29;20041;-80
2022/02/25 21:56:29;;;;;;;0.00;0.00;;;;;;;5.81;48.63;99182.97;4856044;29;20478;-79
2022/02/25 21:58:56;;;;;;;0.00;0.00;;;;;;;5.80;48.55;99181.38;4836622;29;20105;-78
2022/02/25 22:01:21;;;;;;;0.00;0.00;;;;;;;5.79;48.91;99182.41;4851775;29;20037;-79
2022/02/25 22:03:47;;;;;;;0.00;0.00;;;;;;;5.75;49.11;99186.59;4856234;29;20038;-79
2022/02/25 22:06:13;;;;;;;0.00;0.00;;;;;;;5.77;49.41;99197.75;4834641;29;20034;-80
2022/02/25 22:08:38;;;;;;;0.00;0.00;;;;;;;5.73;49.34;99189.47;4842604;29;20428;-77
2022/02/25 22:11:04;;;;;;;0.00;0.00;;;;;;;5.72;49.40;99176.44;4856149;29;20042;-76
2022/02/25 22:13:29;;;;;;;0.00;0.00;;;;;;;5.71;49.57;99188.09;4842481;29;20498;-76
2022/02/25 22:15:55;;;;;;;0.00;0.00;;;;;;;5.73;49.54;99189.47;4857132;29;20036;-77
2022/02/25 22:18:21;;;;;;;0.00;0.00;;;;;;;5.71;49.77;99188.09;4859071;29;20478;-77
2022/02/25 22:20:46;;;;;;;0.00;0.00;;;;;;;5.72;49.68;99182.56;4851794;29;20097;-78
2022/02/25 22:23:12;;;;;;;0.00;0.00;;;;;;;5.70;49.69;99179.34;4858930;29;20043;-77
2022/02/25 22:25:37;;;;;;;0.17;0.17;;;;;;;5.68;49.71;99173.47;4857367;29;20474;-78
2022/02/25 22:28:03;;;;;;;0.00;0.00;;;;;;;5.68;49.92;99183.28;4837937;29;20037;-76
2022/02/25 22:30:29;;;;;;;0.00;0.00;;;;;;;5.69;50.11;99177.75;4845040;29;20049;-75
2022/02/25 22:32:54;;;;;;;0.00;0.00;;;;;;;5.69;49.92;99182.22;4854718;29;20041;-76
2022/02/25 22:35:19;;;;;;;0.00;0.00;;;;;;;5.69;49.59;99185.69;4855763;29;20509;-77
2022/02/25 22:37:45;;;;;;;0.00;0.00;;;;;;;5.69;49.94;99184.88;4858733;29;20034;-78
2022/02/25 22:40:14;;;;;;;0.00;0.00;;;;;;;5.69;50.39;99183.03;4857588;29;20030;-80
2022/02/25 22:42:40;;;;;;;0.00;0.00;;;;;;;5.65;50.39;99179.28;4851540;29;20043;-80
2022/02/25 22:45:06;;;;;;;0.15;0.15;;;;;;;5.62;50.21;99182.41;4850510;29;20117;-79
2022/02/25 22:47:32;;;;;;;0.00;0.00;;;;;;;5.61;50.51;99205.47;4824014;29;20054;-78
2022/02/25 22:59:31;;;;;;;1.00;1.00;;;;;;;5.60;50.44;99206.53;4843165;29;20049;-79
2022/02/25 23:01:02;;;;;;;0.00;0.00;;;;;;;5.60;50.64;99187.13;4859143;29;20125;-76
2022/02/25 23:03:28;;;;;;;0.00;0.00;;;;;;;5.57;50.27;99184.97;4860262;29;20034;-76